Time;durP1;ratioP1;P1;durP2;ratioP2;P2;SDS_P1;SDS_P2;PMS_P1;PMS_P2;Temp;Humidity;BMP_temperature;BMP_pressure;BME280_temperature;BME280_humidity;BME280_pressure;Samples;Min_cycle;Max_cycle;Signal;HPM_P1;HPM_P2
2022/06/09 00:01:35;;;;;;;2.50;1.40;;;16.20;99.90;;;;;;5054603;28;20476;-79
2022/06/09 00:04:07;;;;;;;1.40;1.30;;;16.20;99.90;;;;;;5054469;28;20464;-80
2022/06/09 00:06:38;;;;;;;1.50;1.40;;;16.20;99.90;;;;;;5054939;28;20459;-78
2022/06/09 00:09:06;;;;;;;1.00;1.00;;;16.20;99.90;;;;;;5054479;28;20959;-78
2022/06/09 00:11:40;;;;;;;4.23;1.40;;;16.10;99.90;;;;;;5053688;28;20446;-78
2022/06/09 00:14:09;;;;;;;3.53;1.67;;;16.10;99.90;;;;;;5053620;28;20455;-79
2022/06/09 00:16:36;;;;;;;2.63;1.67;;;16.20;99.90;;;;;;5054300;28;20534;-79
2022/06/09 00:19:05;;;;;;;1.60;1.50;;;16.20;99.90;;;;;;5054669;28;21004;-79
2022/06/09 00:21:32;;;;;;;1.80;1.70;;;16.10;99.90;;;;;;5054265;28;20460;-79
2022/06/09 00:23:59;;;;;;;1.90;1.80;;;16.10;99.90;;;;;;5053681;28;20430;-79
2022/06/09 00:26:26;;;;;;;1.73;1.63;;;16.10;99.90;;;;;;5054504;28;20472;-79
2022/06/09 00:28:54;;;;;;;1.50;1.40;;;16.10;99.90;;;;;;5056108;28;20560;-78
2022/06/09 00:31:21;;;;;;;2.07;1.57;;;16.00;99.90;;;;;;5054360;28;20450;-79
2022/06/09 00:33:48;;;;;;;2.13;1.47;;;15.90;99.90;;;;;;5053602;28;20463;-79
2022/06/09 00:36:15;;;;;;;1.47;1.37;;;15.90;99.90;;;;;;5054188;28;20788;-79
2022/06/09 00:38:42;;;;;;;1.30;1.20;;;15.80;99.90;;;;;;5054292;28;20483;-79
2022/06/09 00:41:09;;;;;;;2.10;1.50;;;15.80;99.90;;;;;;5054709;28;20435;-79
2022/06/09 00:43:36;;;;;;;1.50;1.40;;;15.80;99.90;;;;;;5055328;28;20445;-79
2022/06/09 00:46:12;;;;;;;1.40;1.30;;;15.70;99.90;;;;;;5053819;28;20438;-80
2022/06/09 00:48:43;;;;;;;2.20;1.50;;;15.70;99.90;;;;;;5053127;28;20451;-80
2022/06/09 00:51:25;;;;;;;3.47;1.60;;;15.70;99.90;;;;;;5052908;28;20832;-79
2022/06/09 00:53:56;;;;;;;2.93;1.50;;;15.60;99.90;;;;;;5036534;28;20551;-79
2022/06/09 00:56:23;;;;;;;1.93;1.17;;;15.50;99.90;;;;;;5055406;28;20416;-79
2022/06/09 00:58:53;;;;;;;2.17;1.20;;;15.50;99.90;;;;;;5058578;28;20432;-78
2022/06/09 01:01:22;;;;;;;1.20;1.10;;;15.40;99.90;;;;;;5070740;28;20511;-78
2022/06/09 01:03:53;;;;;;;3.30;1.77;;;15.30;99.90;;;;;;5078883;28;20493;-79
2022/06/09 01:06:22;;;;;;;1.43;1.33;;;15.30;99.90;;;;;;5056257;28;20508;-78
2022/06/09 01:08:54;;;;;;;1.30;1.30;;;15.20;99.90;;;;;;5061901;28;20882;-78
2022/06/09 01:11:21;;;;;;;3.70;1.27;;;15.20;99.90;;;;;;5049681;28;20461;-77
2022/06/09 01:13:48;;;;;;;2.47;1.13;;;15.10;99.90;;;;;;5038693;28;20485;-78
2022/06/09 01:16:25;;;;;;;1.13;1.03;;;15.10;99.90;;;;;;5037456;28;20424;-78
2022/06/09 01:18:59;;;;;;;2.10;1.23;;;15.10;99.90;;;;;;5036819;28;20985;-78
2022/06/09 01:21:48;;;;;;;1.10;1.10;;;15.10;99.90;;;;;;5040618;28;20479;-78
2022/06/09 01:24:37;;;;;;;2.13;1.33;;;15.00;99.90;;;;;;5036226;28;20434;-77
2022/06/09 01:27:37;;;;;;;1.80;1.03;;;15.00;99.90;;;;;;5036412;28;20438;-78
2022/06/09 01:30:09;;;;;;;3.13;1.27;;;15.00;99.90;;;;;;5052557;28;20439;-78
2022/06/09 01:32:42;;;;;;;1.30;1.20;;;15.00;99.90;;;;;;5056157;28;20433;-78
2022/06/09 01:35:18;;;;;;;1.17;1.07;;;15.00;99.90;;;;;;5056073;28;20460;-78
2022/06/09 01:37:47;;;;;;;1.30;1.20;;;15.00;99.90;;;;;;5053128;28;20475;-78
2022/06/09 01:40:16;;;;;;;1.13;1.10;;;15.00;99.90;;;;;;5053617;28;20460;-78
2022/06/09 01:42:44;;;;;;;1.77;1.37;;;15.00;99.90;;;;;;5060193;28;20871;-79
2022/06/09 01:45:15;;;;;;;1.13;1.03;;;15.00;99.90;;;;;;5059485;28;20454;-80
2022/06/09 01:47:49;;;;;;;5.40;1.60;;;14.90;99.90;;;;;;5064030;28;20463;-80
2022/06/09 01:50:23;;;;;;;1.40;1.35;;;14.90;99.90;;;;;;5062007;28;20468;-79
2022/06/09 01:52:52;;;;;;;1.33;1.23;;;14.90;99.90;;;;;;5052004;28;20294;-80
2022/06/09 01:55:23;;;;;;;1.45;1.23;;;14.90;99.90;;;;;;5057112;28;20471;-79
2022/06/09 01:57:55;;;;;;;1.83;1.50;;;14.90;99.90;;;;;;5051261;28;20225;-79
2022/06/09 02:00:22;;;;;;;1.40;1.30;;;14.90;99.90;;;;;;5067469;28;20427;-79
2022/06/09 02:02:54;;;;;;;2.15;1.85;;;14.90;99.90;;;;;;5059448;28;20307;-79
2022/06/09 02:05:25;;;;;;;2.25;1.80;;;14.90;99.90;;;;;;5058413;28;20217;-79
2022/06/09 02:07:55;;;;;;;1.65;1.55;;;14.90;99.90;;;;;;5058733;28;20258;-79
2022/06/09 02:10:31;;;;;;;1.55;1.45;;;14.90;99.90;;;;;;5061750;28;20278;-80
2022/06/09 02:13:01;;;;;;;2.13;1.80;;;14.90;99.90;;;;;;5054004;28;20220;-80
2022/06/09 02:15:35;;;;;;;3.08;1.38;;;14.90;99.90;;;;;;5063006;28;20269;-80
2022/06/09 02:18:08;;;;;;;3.23;1.50;;;14.80;99.90;;;;;;5060581;28;20657;-80
2022/06/09 02:20:37;;;;;;;3.05;1.75;;;14.70;99.90;;;;;;5060390;28;20428;-80
2022/06/09 02:23:04;;;;;;;1.70;1.20;;;14.70;99.90;;;;;;5053787;28;20609;-80
2022/06/09 02:25:31;;;;;;;2.10;1.80;;;14.70;99.90;;;;;;5056898;28;20453;-80
2022/06/09 02:27:57;;;;;;;5.20;2.20;;;14.70;99.90;;;;;;5060375;28;20469;-80
2022/06/09 02:30:25;;;;;;;1.80;1.57;;;14.70;99.90;;;;;;5060745;28;20206;-81
2022/06/09 02:32:51;;;;;;;2.43;1.93;;;14.70;99.90;;;;;;5057787;28;20956;-79
2022/06/09 02:35:20;;;;;;;3.37;1.90;;;14.70;99.90;;;;;;5048188;28;20841;-79
2022/06/09 02:37:46;;;;;;;2.83;2.15;;;14.70;99.90;;;;;;5060200;28;20587;-80
2022/06/09 02:40:13;;;;;;;1.80;1.70;;;14.70;99.90;;;;;;5060131;28;20210;-80
2022/06/09 02:42:40;;;;;;;5.53;1.92;;;14.80;99.90;;;;;;5061953;28;20199;-79
2022/06/09 02:45:10;;;;;;;1.37;1.27;;;14.80;99.90;;;;;;5058207;28;20584;-80
2022/06/09 02:47:36;;;;;;;3.20;1.77;;;14.80;99.90;;;;;;5044276;28;20478;-80
2022/06/09 02:50:04;;;;;;;2.70;1.63;;;14.90;99.90;;;;;;5061996;28;20597;-78
2022/06/09 02:52:32;;;;;;;3.57;1.87;;;14.90;99.90;;;;;;5063273;28;20466;-79
2022/06/09 02:54:59;;;;;;;1.60;1.50;;;14.90;99.90;;;;;;5064496;28;20491;-80
2022/06/09 02:57:29;;;;;;;2.20;1.73;;;14.90;99.90;;;;;;5064128;28;20458;-80
2022/06/09 02:59:55;;;;;;;2.30;1.73;;;14.90;99.90;;;;;;5058028;28;20475;-80
2022/06/09 03:02:23;;;;;;;4.63;1.70;;;14.80;99.90;;;;;;5063661;28;20959;-80
2022/06/09 03:04:50;;;;;;;2.03;1.67;;;14.80;99.90;;;;;;5065020;28;20210;-80
2022/06/09 03:07:17;;;;;;;3.70;2.73;;;14.70;99.90;;;;;;5065878;28;20515;-80
2022/06/09 03:09:45;;;;;;;2.00;1.90;;;14.70;99.90;;;;;;5045600;28;20453;-80
2022/06/09 03:12:12;;;;;;;2.73;2.03;;;14.70;99.90;;;;;;5060971;28;20449;-80
2022/06/09 03:14:39;;;;;;;2.00;1.87;;;14.70;99.90;;;;;;5065580;28;20455;-81
2022/06/09 03:17:06;;;;;;;4.05;1.88;;;14.70;99.90;;;;;;5061547;28;20448;-79
2022/06/09 03:19:34;;;;;;;6.57;2.60;;;14.70;99.90;;;;;;5068374;28;20194;-80
2022/06/09 03:22:01;;;;;;;3.20;1.80;;;14.70;99.90;;;;;;5068567;28;20475;-79
2022/06/09 03:24:27;;;;;;;4.50;2.07;;;14.70;99.90;;;;;;5059797;28;20216;-79
2022/06/09 03:26:56;;;;;;;3.83;2.00;;;14.70;99.90;;;;;;5068502;28;20445;-80
2022/06/09 03:29:23;;;;;;;2.30;1.80;;;14.70;99.90;;;;;;5069701;28;20278;-83
2022/06/09 03:31:51;;;;;;;5.10;1.90;;;14.70;99.90;;;;;;5070231;28;20399;-77
2022/06/09 03:34:19;;;;;;;6.40;2.50;;;14.70;99.90;;;;;;5071605;28;20568;-80
2022/06/09 03:36:46;;;;;;;2.90;1.90;;;14.70;99.90;;;;;;5063590;28;20222;-80
2022/06/09 03:39:14;;;;;;;2.65;2.28;;;14.70;99.90;;;;;;5071729;28;20449;-81
2022/06/09 03:41:41;;;;;;;7.10;5.00;;;14.70;99.90;;;;;;5066133;28;20230;-80
2022/06/09 03:44:09;;;;;;;3.63;3.25;;;14.70;99.90;;;;;;5066421;28;20237;-81
2022/06/09 03:46:36;;;;;;;6.03;1.97;;;14.70;99.90;;;;;;5064618;28;20206;-80
2022/06/09 03:49:03;;;;;;;10.73;2.47;;;14.70;99.90;;;;;;5061263;28;20463;-80
2022/06/09 03:51:30;;;;;;;6.60;2.28;;;14.60;99.90;;;;;;5064006;28;20496;-80
2022/06/09 03:53:57;;;;;;;5.05;2.78;;;14.70;99.90;;;;;;5066591;28;20218;-80
2022/06/09 03:56:24;;;;;;;5.80;2.40;;;14.70;99.90;;;;;;5069737;28;20210;-79
2022/06/09 03:58:50;;;;;;;2.50;2.30;;;14.70;99.90;;;;;;5066242;28;20560;-80
2022/06/09 04:01:19;;;;;;;4.50;2.80;;;14.70;99.90;;;;;;5072664;28;20508;-80
2022/06/09 04:03:47;;;;;;;1.98;1.75;;;14.70;99.90;;;;;;5072262;28;20487;-80
2022/06/09 04:06:17;;;;;;;3.47;2.50;;;14.70;99.90;;;;;;5071424;28;20213;-80
2022/06/09 04:08:44;;;;;;;3.43;2.30;;;14.70;99.90;;;;;;5071480;28;20479;-80
2022/06/09 04:11:11;;;;;;;5.63;2.47;;;14.80;99.90;;;;;;5065817;28;20465;-81
2022/06/09 04:13:39;;;;;;;2.63;2.42;;;14.70;99.90;;;;;;5067494;28;20433;-80
2022/06/09 04:16:10;;;;;;;2.70;2.42;;;14.70;99.90;;;;;;5068603;28;20210;-79
2022/06/09 04:18:39;;;;;;;3.03;2.23;;;14.60;99.90;;;;;;5062249;28;20289;-79
2022/06/09 04:21:06;;;;;;;3.43;2.17;;;14.60;99.90;;;;;;5057102;28;20478;-79
2022/06/09 04:23:33;;;;;;;4.23;2.53;;;14.60;99.90;;;;;;5065289;28;20433;-80
2022/06/09 04:26:00;;;;;;;3.40;2.20;;;14.50;99.90;;;;;;5057038;28;20906;-80
2022/06/09 04:28:26;;;;;;;2.83;2.17;;;14.50;99.90;;;;;;5064255;28;20450;-80
2022/06/09 04:30:53;;;;;;;4.15;2.30;;;14.60;99.90;;;;;;5072612;28;20470;-80
2022/06/09 04:33:20;;;;;;;5.13;2.53;;;14.50;99.90;;;;;;5067389;28;20206;-81
2022/06/09 04:35:48;;;;;;;5.93;2.60;;;14.50;99.90;;;;;;5074473;28;20516;-81
2022/06/09 04:38:15;;;;;;;5.63;2.50;;;14.60;99.90;;;;;;5070918;28;20447;-79
2022/06/09 04:40:42;;;;;;;7.28;2.63;;;14.60;99.90;;;;;;5076529;28;20451;-80
2022/06/09 04:43:12;;;;;;;6.63;2.60;;;14.60;99.90;;;;;;5078672;28;20269;-81
2022/06/09 04:45:40;;;;;;;7.80;2.40;;;14.70;99.90;;;;;;5078423;28;20213;-81
2022/06/09 04:48:09;;;;;;;2.60;2.40;;;14.90;99.90;;;;;;5079664;28;20531;-81
2022/06/09 04:50:40;;;;;;;3.97;2.70;;;15.20;99.90;;;;;;5076697;28;20464;-80
2022/06/09 04:53:09;;;;;;;4.37;2.27;;;15.40;99.90;;;;;;5077453;28;20441;-80
2022/06/09 04:55:36;;;;;;;4.83;2.23;;;15.60;97.20;;;;;;5072980;28;20496;-81
2022/06/09 04:58:03;;;;;;;2.90;2.07;;;16.10;95.20;;;;;;5069959;28;20902;-81
2022/06/09 05:00:32;;;;;;;6.40;3.03;;;16.70;90.10;;;;;;5068180;28;20516;-81
2022/06/09 05:03:00;;;;;;;1.93;1.70;;;17.40;80.50;;;;;;5065511;28;20456;-79
2022/06/09 05:05:30;;;;;;;4.10;1.80;;;18.10;72.40;;;;;;5059380;28;20435;-79
2022/06/09 05:07:57;;;;;;;10.23;2.10;;;18.90;66.40;;;;;;5058723;28;20522;-80
2022/06/09 05:10:26;;;;;;;4.70;1.90;;;19.40;62.30;;;;;;5058373;28;20503;-80
2022/06/09 05:12:53;;;;;;;3.90;1.40;;;19.80;58.40;;;;;;5058899;28;20809;-80
2022/06/09 05:15:21;;;;;;;3.03;1.80;;;20.20;57.10;;;;;;5056305;28;20531;-80
2022/06/09 05:17:49;;;;;;;1.97;1.37;;;20.20;55.00;;;;;;5059316;28;20535;-80
2022/06/09 05:20:20;;;;;;;2.53;1.20;;;19.70;56.60;;;;;;5053645;28;20435;-81
2022/06/09 05:22:47;;;;;;;3.30;1.83;;;19.60;58.20;;;;;;5060671;28;20459;-79
2022/06/09 05:25:15;;;;;;;1.50;1.40;;;19.70;56.60;;;;;;5060922;28;20434;-80
2022/06/09 05:27:44;;;;;;;5.30;1.70;;;19.70;57.00;;;;;;5062827;28;20447;-80
2022/06/09 05:30:15;;;;;;;2.87;1.73;;;20.00;55.70;;;;;;5065324;28;20658;-80
2022/06/09 05:32:41;;;;;;;2.93;1.30;;;20.40;53.50;;;;;;5054584;28;20445;-81
2022/06/09 05:35:10;;;;;;;2.97;1.60;;;20.20;53.20;;;;;;5059084;28;20458;-80
2022/06/09 05:45:55;;;;;;;4.20;1.50;;;20.40;50.10;;;;;;5074012;28;20439;-79
2022/06/09 05:48:22;;;;;;;2.87;1.33;;;20.20;50.90;;;;;;5074523;28;20457;-79
2022/06/09 05:50:49;;;;;;;8.13;1.53;;;20.40;50.90;;;;;;5072371;28;20453;-79
2022/06/09 05:53:16;;;;;;;2.20;1.63;;;20.50;49.40;;;;;;5062454;28;20933;-79
2022/06/09 05:55:43;;;;;;;3.83;2.13;;;20.70;50.10;;;;;;5056809;28;20591;-79
2022/06/09 05:58:12;;;;;;;2.70;1.20;;;21.20;48.80;;;;;;5057457;28;20493;-79
2022/06/09 06:00:41;;;;;;;3.00;1.37;;;21.20;46.30;;;;;;5060458;28;20472;-79
2022/06/09 06:03:08;;;;;;;2.30;1.20;;;21.20;46.10;;;;;;5059554;28;20431;-80
2022/06/09 06:08:20;;;;;;;7.83;1.37;;;20.50;47.60;;;;;;5060450;28;20959;-79
2022/06/09 06:10:46;;;;;;;3.83;1.27;;;20.60;46.10;;;;;;5058948;28;21214;-79
2022/06/09 06:13:15;;;;;;;8.30;1.47;;;20.70;45.80;;;;;;5060900;28;20423;-79
2022/06/09 06:15:42;;;;;;;2.70;1.20;;;20.80;45.80;;;;;;5064400;28;20481;-79
2022/06/09 06:18:09;;;;;;;3.13;1.53;;;21.00;44.40;;;;;;5067975;28;20468;-79
2022/06/09 06:20:39;;;;;;;3.33;1.10;;;20.60;45.60;;;;;;5069835;28;20420;-80
2022/06/09 06:23:06;;;;;;;4.43;1.40;;;20.10;47.30;;;;;;5065130;28;20485;-79
2022/06/09 06:25:33;;;;;;;4.73;1.43;;;19.90;48.70;;;;;;5062567;28;20420;-79
2022/06/09 06:28:00;;;;;;;5.70;1.93;;;20.00;48.10;;;;;;5056131;28;20562;-79
2022/06/09 06:30:28;;;;;;;2.33;1.70;;;20.70;45.80;;;;;;5044323;28;20443;-79
2022/06/09 06:32:56;;;;;;;7.00;1.47;;;20.90;44.30;;;;;;5058749;28;20571;-80
2022/06/09 06:35:23;;;;;;;8.03;1.77;;;20.80;44.60;;;;;;5059747;28;20500;-80
2022/06/09 06:37:49;;;;;;;2.60;1.20;;;21.20;43.50;;;;;;5054254;28;20472;-80
2022/06/09 06:40:17;;;;;;;2.70;1.30;;;20.90;43.50;;;;;;5061008;28;20522;-79
2022/06/09 06:42:44;;;;;;;5.80;1.30;;;21.30;42.60;;;;;;5059416;28;20465;-80
2022/06/09 06:45:13;;;;;;;6.53;1.50;;;21.40;42.30;;;;;;5055537;28;20459;-80
2022/06/09 06:47:42;;;;;;;5.90;1.50;;;22.00;40.70;;;;;;5054730;28;20503;-79
2022/06/09 06:50:11;;;;;;;7.27;1.57;;;22.70;41.20;;;;;;5054674;28;20474;-80
2022/06/09 06:52:38;;;;;;;6.07;1.70;;;22.80;38.20;;;;;;5051641;28;20482;-80
2022/06/09 06:55:06;;;;;;;6.27;1.67;;;22.10;40.20;;;;;;5062190;28;20489;-79
2022/06/09 06:57:33;;;;;;;2.77;1.37;;;21.20;41.90;;;;;;5066994;28;20444;-79
2022/06/09 07:00:00;;;;;;;5.30;1.83;;;20.80;42.60;;;;;;5077857;28;20491;-79
2022/06/09 07:02:27;;;;;;;3.70;1.50;;;20.40;44.00;;;;;;5076393;28;20436;-79
2022/06/09 07:04:55;;;;;;;7.50;1.80;;;20.00;45.30;;;;;;5069920;28;20518;-80
2022/06/09 07:07:23;;;;;;;3.90;1.53;;;19.80;46.40;;;;;;5068809;28;20509;-80
2022/06/09 07:09:49;;;;;;;3.73;1.50;;;19.70;47.70;;;;;;5059960;28;20428;-79
2022/06/09 07:12:16;;;;;;;4.90;1.80;;;19.10;48.00;;;;;;5059413;28;20445;-79
2022/06/09 07:14:43;;;;;;;3.73;1.43;;;18.70;49.50;;;;;;5053534;28;20485;-79
2022/06/09 07:17:10;;;;;;;3.63;1.50;;;18.80;50.10;;;;;;5052241;28;20487;-80
2022/06/09 07:19:37;;;;;;;3.50;1.87;;;18.70;49.80;;;;;;5059760;28;20874;-79
2022/06/09 07:22:07;;;;;;;3.10;1.50;;;18.80;50.80;;;;;;5057993;28;20454;-79
2022/06/09 07:24:34;;;;;;;4.63;1.70;;;18.60;49.60;;;;;;5053671;28;20431;-79
2022/06/09 07:27:01;;;;;;;3.03;1.47;;;18.60;50.70;;;;;;5048393;28;20503;-79
2022/06/09 07:29:28;;;;;;;2.27;1.30;;;18.50;50.60;;;;;;5058861;28;20814;-80
2022/06/09 07:31:55;;;;;;;3.53;1.47;;;18.50;51.20;;;;;;5059075;28;20434;-80
2022/06/09 07:34:22;;;;;;;7.83;1.73;;;18.40;50.40;;;;;;5074051;28;20551;-79
2022/06/09 07:36:49;;;;;;;8.33;2.17;;;18.20;51.80;;;;;;5075720;28;20526;-80
2022/06/09 07:39:17;;;;;;;4.77;1.87;;;17.90;52.90;;;;;;5056519;28;20464;-80
2022/06/09 07:41:44;;;;;;;7.57;2.33;;;18.00;53.70;;;;;;5058297;28;20420;-80
2022/06/09 07:44:11;;;;;;;7.43;2.00;;;18.10;53.20;;;;;;5056112;28;20440;-80
2022/06/09 07:46:39;;;;;;;8.00;1.83;;;18.30;53.20;;;;;;5057164;28;20505;-79
2022/06/09 07:49:07;;;;;;;4.63;1.70;;;18.30;51.60;;;;;;5062453;28;20452;-79
2022/06/09 07:51:33;;;;;;;6.10;1.60;;;18.40;53.10;;;;;;5061064;28;21030;-79
2022/06/09 07:54:01;;;;;;;9.07;1.80;;;18.70;51.50;;;;;;5058243;28;20487;-80
2022/06/09 07:56:32;;;;;;;6.50;1.80;;;18.90;50.50;;;;;;5071969;28;20568;-81
2022/06/09 07:58:59;;;;;;;4.20;2.00;;;19.00;49.60;;;;;;5070404;28;20477;-79
2022/06/09 08:01:25;;;;;;;4.03;1.43;;;18.80;50.70;;;;;;5061044;28;20503;-80
2022/06/09 08:03:53;;;;;;;2.77;1.67;;;18.70;50.60;;;;;;5049643;28;20506;-82
2022/06/09 08:06:20;;;;;;;5.17;2.07;;;18.90;50.60;;;;;;5056311;28;20500;-81
2022/06/09 08:08:47;;;;;;;4.10;1.30;;;19.40;48.30;;;;;;5066478;28;20488;-80
2022/06/09 08:11:14;;;;;;;3.90;2.10;;;19.50;46.60;;;;;;5060117;28;20457;-80
2022/06/09 08:13:42;;;;;;;5.70;1.83;;;19.50;47.00;;;;;;5059498;28;20452;-80
2022/06/09 08:16:09;;;;;;;3.43;1.80;;;19.10;46.90;;;;;;5059328;28;20503;-81
2022/06/09 08:18:36;;;;;;;7.60;1.83;;;18.70;47.60;;;;;;5048957;28;20461;-79
2022/06/09 08:21:03;;;;;;;9.33;2.20;;;18.20;49.60;;;;;;5036707;28;20429;-79
2022/06/09 08:23:30;;;;;;;2.90;1.60;;;18.30;47.60;;;;;;5038464;28;20474;-81
2022/06/09 08:26:02;;;;;;;4.30;1.70;;;18.40;47.30;;;;;;5039151;28;20966;-80
2022/06/09 08:28:29;;;;;;;4.80;2.20;;;18.50;47.50;;;;;;5057987;28;20502;-80
2022/06/09 08:31:00;;;;;;;2.70;1.60;;;18.60;47.60;;;;;;5083500;22;20504;-82
2022/06/09 08:33:27;;;;;;;4.00;1.30;;;19.00;46.80;;;;;;5076130;28;20434;-80
2022/06/09 08:35:55;;;;;;;2.87;1.30;;;19.60;45.30;;;;;;5075980;28;20443;-81
2022/06/09 08:38:22;;;;;;;3.97;1.60;;;19.70;43.80;;;;;;5074830;28;20443;-80
2022/06/09 08:40:56;;;;;;;3.60;1.57;;;19.60;45.10;;;;;;5073505;28;20490;-80
2022/06/09 08:43:35;;;;;;;5.53;1.40;;;19.40;44.60;;;;;;5077951;28;20414;-80
2022/06/09 08:46:23;;;;;;;6.50;2.10;;;19.50;44.40;;;;;;5076807;28;20499;-80
2022/06/09 08:48:51;;;;;;;5.10;2.20;;;19.50;43.90;;;;;;5076936;28;20441;-80
2022/06/09 08:51:25;;;;;;;4.13;1.73;;;19.60;43.70;;;;;;5077705;28;20445;-79
2022/06/09 08:53:59;;;;;;;4.70;1.50;;;19.70;43.90;;;;;;5077563;28;20391;-80
2022/06/09 08:56:31;;;;;;;5.90;1.50;;;19.60;44.20;;;;;;5088786;28;20498;-81
2022/06/09 08:59:00;;;;;;;8.00;1.70;;;19.90;42.40;;;;;;5088062;28;20454;-83
2022/06/09 09:01:55;;;;;;;4.63;1.40;;;19.90;42.40;;;;;;5094560;28;20432;-80
2022/06/09 09:04:26;;;;;;;5.27;1.80;;;20.20;41.10;;;;;;5085792;28;20461;-83
2022/06/09 09:06:58;;;;;;;4.50;1.70;;;19.70;42.10;;;;;;5068791;28;20400;-80
2022/06/09 09:09:32;;;;;;;3.13;1.37;;;19.40;43.10;;;;;;5073471;28;20482;-81
2022/06/09 09:12:06;;;;;;;4.40;1.70;;;19.50;43.10;;;;;;5211095;22;20420;-81
2022/06/09 09:14:38;;;;;;;3.90;1.20;;;19.80;43.60;;;;;;5076330;28;20467;-82
2022/06/09 09:17:32;;;;;;;1.37;1.20;;;19.80;43.30;;;;;;5080062;28;20489;-81
2022/06/09 09:20:04;;;;;;;4.23;1.30;;;19.50;42.60;;;;;;5077547;28;20445;-82
2022/06/09 09:22:39;;;;;;;4.93;1.50;;;19.30;43.20;;;;;;5068841;28;20456;-82
2022/06/09 09:25:21;;;;;;;5.67;1.57;;;19.50;41.60;;;;;;5074646;28;20523;-81
2022/06/09 09:27:53;;;;;;;4.33;1.40;;;19.90;41.40;;;;;;5075855;28;20440;-82
2022/06/09 09:30:23;;;;;;;4.30;1.97;;;20.00;41.10;;;;;;5075135;28;20511;-84
2022/06/09 09:32:55;;;;;;;6.90;1.80;;;19.80;42.30;;;;;;5070010;28;20520;-79
2022/06/09 09:35:25;;;;;;;3.03;2.00;;;19.50;42.30;;;;;;5075336;28;20494;-79
2022/06/09 09:38:04;;;;;;;4.23;1.67;;;19.40;42.50;;;;;;5068649;28;20506;-81
2022/06/09 09:40:35;;;;;;;4.90;1.90;;;19.20;42.50;;;;;;5064783;28;20496;-78
2022/06/09 09:43:09;;;;;;;7.73;2.30;;;19.10;41.80;;;;;;5065821;28;20443;-80
2022/06/09 09:45:58;;;;;;;4.37;2.20;;;19.00;42.70;;;;;;5073936;28;20414;-82
2022/06/09 09:48:34;;;;;;;3.87;2.23;;;18.90;43.20;;;;;;5073064;28;20447;-79
2022/06/09 09:51:05;;;;;;;1.67;1.53;;;18.70;43.20;;;;;;5071224;28;20481;-79
2022/06/09 09:53:38;;;;;;;3.80;1.60;;;18.80;40.00;;;;;;5070533;28;20424;-78
2022/06/09 09:56:57;;;;;;;3.67;1.67;;;18.80;37.70;;;;;;5073205;28;20548;-80
2022/06/09 09:59:27;;;;;;;2.37;1.37;;;19.00;37.90;;;;;;5070605;28;20469;-81
2022/06/09 10:10:26;;;;;;;2.40;1.20;;;19.50;40.70;;;;;;5054229;28;20482;-80
2022/06/09 10:12:54;;;;;;;4.60;1.43;;;19.60;40.10;;;;;;5058054;28;20484;-84
2022/06/09 10:15:22;;;;;;;5.20;1.47;;;19.40;38.20;;;;;;5068557;28;20436;-83
2022/06/09 10:17:57;;;;;;;2.57;1.47;;;19.30;38.10;;;;;;5068640;28;20507;-83
2022/06/09 10:20:33;;;;;;;5.73;1.63;;;19.30;38.10;;;;;;5066843;28;20461;-83
2022/06/09 10:23:27;;;;;;;1.73;1.43;;;19.40;36.50;;;;;;5068223;28;20442;-83
2022/06/09 10:26:00;;;;;;;1.80;1.10;;;19.40;36.30;;;;;;5069641;28;20495;-82
2022/06/09 10:31:40;;;;;;;8.03;1.60;;;19.60;36.30;;;;;;5071510;28;20427;-83
2022/06/09 10:34:22;;;;;;;4.97;1.50;;;19.90;35.70;;;;;;5072159;28;20448;-83
2022/06/09 10:36:54;;;;;;;4.77;1.60;;;19.90;34.10;;;;;;5062261;28;20498;-81
2022/06/09 10:39:32;;;;;;;5.03;1.07;;;19.90;35.30;;;;;;5068441;28;20461;-82
2022/06/09 10:42:06;;;;;;;8.90;1.97;;;20.00;34.60;;;;;;5069503;28;20438;-82
2022/06/09 10:44:40;;;;;;;4.17;1.77;;;19.90;34.80;;;;;;5111850;22;20852;-83
2022/06/09 10:55:49;;;;;;;3.93;1.50;;;20.60;34.10;;;;;;5067616;28;20390;-83
2022/06/09 10:58:26;;;;;;;6.47;1.67;;;20.90;34.80;;;;;;5066524;28;20411;-85
2022/06/09 11:00:53;;;;;;;3.20;1.33;;;21.10;33.70;;;;;;5064751;28;20473;-84
2022/06/09 11:03:23;;;;;;;4.30;1.70;;;21.40;34.00;;;;;;5066209;28;20450;-84
2022/06/09 11:06:08;;;;;;;4.00;1.00;;;21.30;33.70;;;;;;5066704;28;20427;-84
2022/06/09 11:08:51;;;;;;;7.33;1.80;;;21.30;34.20;;;;;;5065716;28;20487;-84
2022/06/09 11:11:24;;;;;;;2.30;1.20;;;21.30;33.90;;;;;;5067988;28;20547;-81
2022/06/09 11:14:03;;;;;;;7.03;2.00;;;21.10;33.80;;;;;;5070189;28;20865;-82
2022/06/09 11:16:44;;;;;;;2.80;1.57;;;20.80;35.20;;;;;;5066935;28;20460;-82
2022/06/09 11:19:32;;;;;;;5.73;1.50;;;20.80;35.70;;;;;;5065669;28;20949;-82
2022/06/09 11:22:08;;;;;;;2.93;1.63;;;21.20;35.30;;;;;;5068816;28;20459;-83
2022/06/09 11:24:49;;;;;;;4.90;1.83;;;21.20;35.10;;;;;;5071612;28;20453;-82
2022/06/09 11:27:27;;;;;;;4.60;1.57;;;21.50;34.50;;;;;;5070613;28;20423;-82
2022/06/09 11:30:12;;;;;;;3.80;2.20;;;21.40;33.90;;;;;;5071070;28;20499;-82
2022/06/09 11:32:51;;;;;;;4.17;1.70;;;20.90;34.40;;;;;;5076859;28;20436;-81
2022/06/09 11:35:40;;;;;;;3.23;1.40;;;20.80;32.60;;;;;;5075066;28;20535;-84
2022/06/09 11:38:29;;;;;;;2.77;1.50;;;21.20;33.30;;;;;;5075278;28;20475;-83
2022/06/09 11:41:08;;;;;;;8.00;1.60;;;21.50;32.50;;;;;;5073664;28;20479;-82
2022/06/09 11:43:56;;;;;;;5.77;1.60;;;21.40;32.20;;;;;;5075959;28;20475;-84
2022/06/09 11:46:27;;;;;;;9.10;1.80;;;21.30;32.30;;;;;;5074795;28;20438;-86
2022/06/09 11:48:57;;;;;;;3.17;1.47;;;21.40;33.10;;;;;;5075091;28;20652;-84
2022/06/09 11:51:27;;;;;;;4.00;1.30;;;21.20;32.40;;;;;;5066339;28;20461;-80
2022/06/09 11:53:57;;;;;;;5.27;1.40;;;21.10;32.30;;;;;;5060914;28;20470;-82
2022/06/09 11:56:36;;;;;;;6.87;1.40;;;20.80;32.20;;;;;;5068502;28;20480;-83
2022/06/09 11:59:14;;;;;;;3.23;1.50;;;20.80;32.40;;;;;;5069620;28;20439;-82
2022/06/09 12:02:11;;;;;;;3.53;1.40;;;20.90;32.10;;;;;;5067804;28;20435;-82
2022/06/09 12:05:06;;;;;;;3.90;1.73;;;21.00;32.50;;;;;;5072001;28;20490;-80
2022/06/09 12:07:49;;;;;;;5.47;1.77;;;21.10;32.40;;;;;;5069388;28;20551;-81
2022/06/09 12:10:38;;;;;;;3.77;1.67;;;20.80;32.00;;;;;;5066379;28;20443;-82
2022/06/09 12:13:24;;;;;;;4.23;1.90;;;20.80;32.20;;;;;;5075654;28;20459;-80
2022/06/09 12:15:56;;;;;;;2.87;1.27;;;21.00;32.40;;;;;;5073087;28;20484;-83
2022/06/09 12:18:36;;;;;;;3.70;1.50;;;21.60;32.00;;;;;;5075849;28;20454;-84
2022/06/09 12:21:12;;;;;;;4.23;1.70;;;21.60;31.30;;;;;;5073668;28;20491;-84
2022/06/09 12:23:43;;;;;;;3.97;1.77;;;21.90;30.30;;;;;;5071049;28;20407;-79
2022/06/09 12:26:27;;;;;;;3.13;1.87;;;22.00;30.30;;;;;;5060490;28;20482;-81
2022/06/09 12:29:30;;;;;;;2.47;1.70;;;21.70;29.40;;;;;;5057925;28;20457;-82
2022/06/09 12:32:39;;;;;;;3.10;1.63;;;21.60;28.00;;;;;;5055902;28;20438;-82
2022/06/09 12:35:20;;;;;;;4.57;1.67;;;21.70;28.50;;;;;;5063076;28;20428;-82
2022/06/09 12:37:54;;;;;;;3.87;1.50;;;21.60;29.30;;;;;;5060700;28;20459;-81
2022/06/09 12:40:25;;;;;;;2.07;1.60;;;21.30;29.20;;;;;;5053543;28;20456;-81
2022/06/09 12:42:56;;;;;;;3.43;1.30;;;20.90;29.50;;;;;;5053375;28;20485;-80
2022/06/09 12:45:26;;;;;;;4.90;1.87;;;21.10;30.80;;;;;;5053427;28;20787;-81
2022/06/09 12:48:00;;;;;;;2.50;1.80;;;21.20;29.80;;;;;;5066616;28;20502;-85
2022/06/09 12:50:40;;;;;;;4.13;1.53;;;21.10;29.70;;;;;;5069521;28;20561;-83
2022/06/09 12:53:08;;;;;;;5.80;2.03;;;21.00;29.60;;;;;;5076500;28;20491;-79
2022/06/09 12:55:37;;;;;;;2.70;1.40;;;21.20;31.80;;;;;;5067886;28;20490;-85
2022/06/09 12:58:16;;;;;;;4.07;1.53;;;21.20;30.40;;;;;;5058393;28;20508;-84
2022/06/09 13:00:47;;;;;;;4.23;1.53;;;21.30;29.80;;;;;;5071235;28;20470;-83
2022/06/09 13:03:23;;;;;;;7.27;2.20;;;21.60;31.60;;;;;;5055334;28;20517;-83
2022/06/09 13:05:50;;;;;;;3.97;1.80;;;21.70;32.40;;;;;;5054490;28;20396;-82
2022/06/09 13:08:21;;;;;;;4.67;1.67;;;21.50;32.90;;;;;;5053485;28;20430;-82
2022/06/09 13:10:55;;;;;;;8.03;1.70;;;21.50;33.40;;;;;;5052159;28;20509;-82
2022/06/09 13:13:26;;;;;;;2.47;1.40;;;21.40;33.30;;;;;;5051958;28;20437;-79
2022/06/09 13:16:00;;;;;;;3.53;1.30;;;21.50;34.00;;;;;;5059836;28;20446;-83
2022/06/09 13:18:32;;;;;;;2.17;1.40;;;21.70;32.80;;;;;;5077030;28;20481;-80
2022/06/09 13:21:07;;;;;;;4.33;1.50;;;21.80;32.20;;;;;;5067182;28;20462;-81
2022/06/09 13:23:36;;;;;;;3.07;1.70;;;22.00;31.40;;;;;;5078038;28;20449;-83
2022/06/09 13:26:08;;;;;;;5.23;1.30;;;21.80;32.60;;;;;;5077553;28;20425;-82
2022/06/09 13:28:39;;;;;;;2.97;1.53;;;22.00;32.70;;;;;;5058272;28;20441;-84
2022/06/09 13:31:25;;;;;;;2.40;1.40;;;22.20;33.00;;;;;;5059766;28;20463;-84
2022/06/09 13:33:58;;;;;;;6.53;1.77;;;22.30;32.60;;;;;;5074590;28;20440;-85
2022/06/09 13:36:35;;;;;;;3.30;1.40;;;22.50;34.40;;;;;;5072768;28;20537;-83
2022/06/09 13:39:24;;;;;;;3.40;1.80;;;22.60;32.70;;;;;;5073701;28;20431;-83
2022/06/09 13:41:53;;;;;;;2.77;1.10;;;22.70;31.00;;;;;;5077166;28;20446;-84